Time;durP1;ratioP1;P1;durP2;ratioP2;P2;SDS_P1;SDS_P2;PMS_P1;PMS_P2;Temp;Humidity;BMP_temperature;BMP_pressure;BME280_temperature;BME280_humidity;BME280_pressure;Samples;Min_cycle;Max_cycle;Signal;HPM_P1;HPM_P2
2022/11/28 00:00:04;;;;;;;;;;;;;;;20.54;27.88;98673.78;5056672;28;992;-75
2022/11/28 00:02:37;;;;;;;;;;;;;;;20.70;27.75;98668.31;5056294;28;922;-76
2022/11/28 00:05:03;;;;;;;;;;;;;;;20.73;27.43;98664.66;5056606;28;989;-76
2022/11/28 00:07:29;;;;;;;;;;;;;;;20.85;27.30;98651.97;5056166;28;1080;-76
2022/11/28 00:09:54;;;;;;;;;;;;;;;21.06;27.41;98653.72;5056527;28;877;-76
2022/11/28 00:12:19;;;;;;;;;;;;;;;21.08;27.07;98648.41;5056464;28;967;-76
2022/11/28 00:14:45;;;;;;;;;;;;;;;20.64;27.50;98653.06;5056413;28;1965;-76
2022/11/28 00:17:10;;;;;;;;;;;;;;;20.65;27.83;98649.00;5056114;28;951;-75
2022/11/28 00:19:36;;;;;;;;;;;;;;;20.63;27.57;98654.28;5056238;28;923;-76
2022/11/28 00:22:01;;;;;;;;;;;;;;;20.99;27.09;98642.50;5038615;28;1408;-75
2022/11/28 00:24:27;;;;;;;;;;;;;;;21.13;27.12;98647.94;5038471;28;1089;-75
2022/11/28 00:26:52;;;;;;;;;;;;;;;20.94;27.32;98637.31;5056293;28;934;-76
2022/11/28 00:29:18;;;;;;;;;;;;;;;20.61;27.79;98645.41;5056284;28;941;-75
2022/11/28 00:31:43;;;;;;;;;;;;;;;20.61;27.55;98628.44;5055841;28;847;-76
2022/11/28 00:34:09;;;;;;;;;;;;;;;20.33;28.05;98629.56;5055807;28;1910;-75
2022/11/28 00:36:35;;;;;;;;;;;;;;;20.61;27.96;98625.63;5038083;28;1104;-76
2022/11/28 00:39:00;;;;;;;;;;;;;;;20.84;27.49;98629.78;5055562;28;960;-75
2022/11/28 00:41:27;;;;;;;;;;;;;;;21.20;26.64;98630.88;5055830;28;977;-76
2022/11/28 00:43:53;;;;;;;;;;;;;;;20.65;27.46;98612.22;5055517;28;889;-76
2022/11/28 00:46:18;;;;;;;;;;;;;;;20.64;27.45;98621.94;5038164;28;955;-76
2022/11/28 00:48:44;;;;;;;;;;;;;;;20.44;27.63;98615.31;5056082;28;970;-76
2022/11/28 00:51:10;;;;;;;;;;;;;;;21.26;26.55;98623.50;5036868;28;971;-76
2022/11/28 00:53:36;;;;;;;;;;;;;;;21.10;26.86;98608.41;5055417;28;1982;-77
2022/11/28 00:56:05;;;;;;;;;;;;;;;21.03;26.90;98614.94;5053654;28;938;-76
2022/11/28 00:58:31;;;;;;;;;;;;;;;20.69;27.28;98613.00;5055673;28;970;-76
2022/11/28 01:00:57;;;;;;;;;;;;;;;20.79;27.45;98606.41;5055548;28;925;-76
2022/11/28 01:03:22;;;;;;;;;;;;;;;20.79;27.16;98602.78;5055830;28;1124;-76
2022/11/28 01:05:47;;;;;;;;;;;;;;;20.92;27.00;98608.63;5055455;28;905;-76
2022/11/28 01:08:13;;;;;;;;;;;;;;;20.93;27.20;98604.56;5055450;28;969;-75
2022/11/28 01:10:39;;;;;;;;;;;;;;;21.23;26.75;98600.91;5038289;28;935;-76
2022/11/28 01:13:05;;;;;;;;;;;;;;;21.22;26.47;98611.41;5055171;28;904;-76
2022/11/28 01:15:30;;;;;;;;;;;;;;;20.94;27.07;98600.53;5055223;28;1987;-76
2022/11/28 01:17:56;;;;;;;;;;;;;;;20.61;27.24;98586.03;5055543;28;1069;-76
2022/11/28 01:20:21;;;;;;;;;;;;;;;20.56;27.32;98600.63;5037813;28;886;-76
2022/11/28 01:22:47;;;;;;;;;;;;;;;20.88;27.44;98580.41;5055181;28;914;-76
2022/11/28 01:25:12;;;;;;;;;;;;;;;20.88;27.45;98596.56;5055539;28;945;-76
2022/11/28 01:27:37;;;;;;;;;;;;;;;20.85;27.01;98592.56;5055427;28;1161;-75
2022/11/28 01:30:03;;;;;;;;;;;;;;;20.72;27.46;98578.19;5055205;28;934;-76
2022/11/28 01:32:29;;;;;;;;;;;;;;;20.54;27.50;98588.97;4987404;28;1002;-76
2022/11/28 01:34:54;;;;;;;;;;;;;;;20.81;27.36;98575.66;5055224;28;1898;-76
2022/11/28 01:37:19;;;;;;;;;;;;;;;21.05;26.97;98581.38;5037488;28;1065;-76
2022/11/28 01:39:45;;;;;;;;;;;;;;;21.05;26.88;98581.38;5055133;28;874;-76
2022/11/28 01:42:15;;;;;;;;;;;;;;;20.77;26.94;98580.53;5055237;28;933;-76
2022/11/28 01:44:40;;;;;;;;;;;;;;;20.65;27.29;98578.31;5037116;28;934;-76
2022/11/28 01:47:06;;;;;;;;;;;;;;;20.66;27.15;98562.94;5055289;28;986;-76
2022/11/28 01:49:33;;;;;;;;;;;;;;;21.06;26.88;98560.34;5037367;28;890;-77
2022/11/28 01:52:00;;;;;;;;;;;;;;;21.08;26.82;98563.53;5020789;28;1025;-76
2022/11/28 01:54:25;;;;;;;;;;;;;;;21.26;26.74;98555.56;5037118;28;1963;-76
2022/11/28 01:56:52;;;;;;;;;;;;;;;20.70;27.44;98546.72;5055111;28;998;-76
2022/11/28 01:59:17;;;;;;;;;;;;;;;20.79;27.10;98558.31;5037719;28;932;-75
2022/11/28 02:01:43;;;;;;;;;;;;;;;20.51;27.79;98544.56;5003798;28;1205;-76
2022/11/28 02:04:09;;;;;;;;;;;;;;;20.79;27.32;98544.16;5040970;28;1186;-76
2022/11/28 02:06:34;;;;;;;;;;;;;;;20.98;26.98;98550.34;5058481;28;893;-76
2022/11/28 02:09:00;;;;;;;;;;;;;;;21.01;26.79;98558.00;5058485;28;1185;-77
2022/11/28 02:11:44;;;;;;;;;;;;;;;20.80;26.86;98557.09;5058640;28;897;-76
2022/11/28 02:14:15;;;;;;;;;;;;;;;20.53;27.62;98553.44;5058304;28;1963;-75
2022/11/28 02:16:46;;;;;;;;;;;;;;;20.61;27.19;98554.94;5040960;28;1017;-76
2022/11/28 02:19:31;;;;;;;;;;;;;;;20.92;27.07;98557.72;5058769;28;899;-76
2022/11/28 02:21:56;;;;;;;;;;;;;;;21.02;26.74;98554.72;5058776;28;959;-76
2022/11/28 02:24:34;;;;;;;;;;;;;;;21.18;26.66;98547.63;5058384;28;886;-76
2022/11/28 02:27:06;;;;;;;;;;;;;;;20.81;27.03;98552.22;5058482;28;1006;-76
2022/11/28 02:29:43;;;;;;;;;;;;;;;20.73;27.05;98551.53;5058442;28;938;-76
2022/11/28 02:32:20;;;;;;;;;;;;;;;20.71;27.40;98559.63;5040554;28;1006;-76
2022/11/28 02:34:47;;;;;;;;;;;;;;;20.86;26.97;98565.09;5058086;28;1988;-76
2022/11/28 02:37:27;;;;;;;;;;;;;;;20.91;27.10;98567.44;5058041;28;1177;-76
2022/11/28 02:40:11;;;;;;;;;;;;;;;20.78;27.06;98562.38;5040685;28;936;-76
2022/11/28 02:42:46;;;;;;;;;;;;;;;20.68;27.37;98565.34;5058313;28;956;-76
2022/11/28 02:45:12;;;;;;;;;;;;;;;20.64;27.32;98558.94;5057660;28;941;-76
2022/11/28 02:47:58;;;;;;;;;;;;;;;20.64;27.43;98570.25;5040486;28;951;-76
2022/11/28 02:50:24;;;;;;;;;;;;;;;21.07;26.94;98564.75;5057115;28;1034;-76
2022/11/28 02:52:55;;;;;;;;;;;;;;;20.72;27.35;98566.88;4996160;28;1007;-76
2022/11/28 02:55:20;;;;;;;;;;;;;;;20.71;27.01;98561.66;4995998;28;1914;-75
2022/11/28 02:57:46;;;;;;;;;;;;;;;20.48;27.80;98562.38;4979554;28;1019;-76
2022/11/28 03:00:24;;;;;;;;;;;;;;;20.55;27.63;98560.25;4996145;28;988;-76
2022/11/28 03:02:52;;;;;;;;;;;;;;;20.76;27.06;98556.31;4995998;28;975;-76
2022/11/28 03:05:27;;;;;;;;;;;;;;;20.74;26.96;98558.78;4996112;28;1213;-76
2022/11/28 03:08:01;;;;;;;;;;;;;;;20.55;27.33;98556.63;4995890;28;965;-76
2022/11/28 03:10:33;;;;;;;;;;;;;;;20.69;27.35;98567.75;4995930;28;1098;-76
2022/11/28 03:13:07;;;;;;;;;;;;;;;20.69;26.89;98555.66;4995756;28;915;-76
2022/11/28 03:15:47;;;;;;;;;;;;;;;21.03;26.56;98564.00;4995162;28;1979;-76
2022/11/28 03:18:14;;;;;;;;;;;;;;;20.85;27.00;98561.47;4995702;28;949;-76
2022/11/28 03:20:55;;;;;;;;;;;;;;;21.09;26.58;98562.31;4995874;28;981;-76
2022/11/28 03:23:24;;;;;;;;;;;;;;;20.67;26.88;98555.25;5011675;28;1062;-76
2022/11/28 03:25:52;;;;;;;;;;;;;;;20.54;27.36;98549.38;5039260;28;892;-76
2022/11/28 03:28:20;;;;;;;;;;;;;;;20.46;27.40;98547.81;5057030;28;890;-76
2022/11/28 03:30:47;;;;;;;;;;;;;;;20.51;27.24;98545.34;5039574;28;1218;-76
2022/11/28 03:33:13;;;;;;;;;;;;;;;20.71;27.24;98550.34;5039065;28;1100;-76
2022/11/28 03:35:40;;;;;;;;;;;;;;;20.98;26.51;98550.34;5022950;28;1909;-76
2022/11/28 03:38:08;;;;;;;;;;;;;;;20.59;26.86;98545.28;5022849;28;1613;-77
2022/11/28 03:40:35;;;;;;;;;;;;;;;20.56;27.09;98541.25;5022463;28;988;-76
2022/11/28 03:43:05;;;;;;;;;;;;;;;20.60;26.99;98544.84;5020970;28;1122;-75
2022/11/28 03:45:32;;;;;;;;;;;;;;;20.66;27.18;98545.16;5051985;28;1116;-76
2022/11/28 03:47:59;;;;;;;;;;;;;;;20.76;27.04;98550.66;5038065;28;1365;-76
2022/11/28 03:50:31;;;;;;;;;;;;;;;20.89;26.65;98550.09;5021964;28;2480;-76
2022/11/28 03:53:04;;;;;;;;;;;;;;;20.50;27.13;98549.41;5055934;28;1353;-76
2022/11/28 03:55:33;;;;;;;;;;;;;;;20.94;26.65;98549.63;5048824;28;1979;-76
2022/11/28 03:58:18;;;;;;;;;;;;;;;20.79;26.82;98552.66;5017379;28;1346;-76
2022/11/28 04:00:51;;;;;;;;;;;;;;;20.83;27.03;98555.44;5030769;28;1279;-77
2022/11/28 04:03:25;;;;;;;;;;;;;;;20.72;27.19;98555.56;5014208;28;1298;-76
2022/11/28 04:05:58;;;;;;;;;;;;;;;21.05;26.41;98562.38;5012490;28;1354;-76
2022/11/28 04:08:25;;;;;;;;;;;;;;;20.81;26.84;98564.34;4973131;28;1339;-76
2022/11/28 04:10:51;;;;;;;;;;;;;;;20.68;26.97;98560.50;4994311;28;1326;-77
2022/11/28 04:13:19;;;;;;;;;;;;;;;21.27;26.19;98556.38;4977808;28;1319;-77
2022/11/28 04:15:46;;;;;;;;;;;;;;;21.18;26.25;98562.56;4992085;28;1976;-77
2022/11/28 04:18:17;;;;;;;;;;;;;;;21.03;26.41;98558.34;4994003;28;1345;-76
2022/11/28 04:20:51;;;;;;;;;;;;;;;20.98;26.16;98567.31;4994769;28;1025;-76
2022/11/28 04:23:17;;;;;;;;;;;;;;;20.65;27.03;98561.34;4978088;28;981;-77
2022/11/28 04:25:52;;;;;;;;;;;;;;;20.67;26.82;98563.72;4978738;28;1402;-77
2022/11/28 04:28:18;;;;;;;;;;;;;;;20.89;26.81;98567.06;4977917;28;1318;-76
2022/11/28 04:30:43;;;;;;;;;;;;;;;20.79;27.09;98561.13;4994077;28;1353;-76
2022/11/28 04:33:09;;;;;;;;;;;;;;;20.92;26.85;98560.56;4962700;28;1319;-76
2022/11/28 04:35:36;;;;;;;;;;;;;;;20.61;26.98;98566.22;4954750;29;1902;-76
2022/11/28 04:38:02;;;;;;;;;;;;;;;20.86;26.63;98559.44;4954795;29;1375;-77
2022/11/28 04:40:28;;;;;;;;;;;;;;;21.09;26.59;98562.31;4954795;28;1307;-77
2022/11/28 04:42:57;;;;;;;;;;;;;;;21.02;26.67;98562.41;4955097;28;1362;-76
2022/11/28 04:45:23;;;;;;;;;;;;;;;21.17;26.37;98565.81;4970889;28;933;-77
2022/11/28 04:47:48;;;;;;;;;;;;;;;20.69;26.94;98566.94;4997377;28;1131;-76
2022/11/28 04:50:13;;;;;;;;;;;;;;;20.67;27.00;98564.53;5013571;28;1085;-76
2022/11/28 04:52:39;;;;;;;;;;;;;;;20.53;27.13;98570.41;4997468;28;919;-77
2022/11/28 04:55:23;;;;;;;;;;;;;;;20.80;26.84;98562.75;4997174;28;1910;-77
2022/11/28 04:57:49;;;;;;;;;;;;;;;21.06;26.47;98563.16;4997222;28;995;-77
2022/11/28 05:00:15;;;;;;;;;;;;;;;21.01;26.32;98566.47;5013494;28;933;-76
2022/11/28 05:02:41;;;;;;;;;;;;;;;20.77;26.58;98557.91;4980697;28;1225;-77
2022/11/28 05:05:07;;;;;;;;;;;;;;;20.54;27.02;98566.34;4991389;28;1074;-76
2022/11/28 05:07:33;;;;;;;;;;;;;;;20.54;27.02;98560.69;4977821;28;1615;-77
2022/11/28 05:09:58;;;;;;;;;;;;;;;21.08;26.11;98572.00;4977703;28;1036;-77
2022/11/28 05:12:24;;;;;;;;;;;;;;;21.06;26.19;98568.81;4993836;28;980;-77
2022/11/28 05:14:49;;;;;;;;;;;;;;;20.81;26.43;98572.81;4993960;28;1911;-76
2022/11/28 05:17:14;;;;;;;;;;;;;;;20.62;26.89;98573.47;4993683;28;977;-77
2022/11/28 05:19:40;;;;;;;;;;;;;;;20.64;26.65;98575.91;4993996;28;994;-76
2022/11/28 05:22:05;;;;;;;;;;;;;;;20.94;26.77;98575.88;4993680;28;939;-77
2022/11/28 05:24:31;;;;;;;;;;;;;;;21.11;26.05;98573.19;4961273;28;987;-77
2022/11/28 05:26:56;;;;;;;;;;;;;;;21.02;26.11;98579.38;4993826;28;1011;-77
2022/11/28 05:29:23;;;;;;;;;;;;;;;20.85;26.44;98577.63;4993898;28;987;-77
2022/11/28 05:31:49;;;;;;;;;;;;;;;20.57;27.02;98576.00;4993629;28;1000;-76
2022/11/28 05:34:14;;;;;;;;;;;;;;;20.52;26.79;98571.59;4993499;28;1971;-77
2022/11/28 05:36:40;;;;;;;;;;;;;;;21.22;26.10;98576.66;4993802;28;1061;-77
2022/11/28 05:39:05;;;;;;;;;;;;;;;21.32;25.72;98575.72;4997671;28;945;-77
2022/11/28 05:41:30;;;;;;;;;;;;;;;20.99;26.11;98585.91;5002256;28;1021;-76
2022/11/28 05:43:56;;;;;;;;;;;;;;;20.66;26.73;98574.25;5058882;28;939;-77
2022/11/28 05:46:22;;;;;;;;;;;;;;;20.62;26.85;98590.44;5059232;28;973;-77
2022/11/28 05:48:47;;;;;;;;;;;;;;;21.02;26.21;98599.19;5058749;28;854;-76
2022/11/28 05:51:12;;;;;;;;;;;;;;;21.03;26.20;98597.97;5024594;28;930;-77
2022/11/28 05:53:38;;;;;;;;;;;;;;;21.09;26.05;98607.59;5040941;28;1898;-76
2022/11/28 05:56:07;;;;;;;;;;;;;;;20.68;26.60;98590.81;5040952;28;948;-77
2022/11/28 05:58:32;;;;;;;;;;;;;;;20.75;26.29;98599.97;5024716;28;981;-76
2022/11/28 06:00:58;;;;;;;;;;;;;;;20.40;26.79;98606.84;5058463;28;1065;-76
2022/11/28 06:03:23;;;;;;;;;;;;;;;20.95;26.50;98607.81;5040710;28;916;-77
2022/11/28 06:05:49;;;;;;;;;;;;;;;20.89;26.42;98603.84;5058721;28;1026;-76
2022/11/28 06:08:14;;;;;;;;;;;;;;;21.08;26.26;98606.78;5058819;28;921;-76
2022/11/28 06:10:40;;;;;;;;;;;;;;;20.65;26.46;98600.94;5058618;28;913;-77
2022/11/28 06:13:05;;;;;;;;;;;;;;;20.67;26.52;98604.13;5040637;28;945;-76
2022/11/28 06:15:32;;;;;;;;;;;;;;;20.49;26.80;98603.56;5040553;28;1914;-76
2022/11/28 06:17:58;;;;;;;;;;;;;;;20.80;26.38;98607.19;4996437;28;1015;-76
2022/11/28 06:20:23;;;;;;;;;;;;;;;20.96;26.04;98598.06;4997102;28;1018;-76
2022/11/28 06:22:49;;;;;;;;;;;;;;;21.44;25.42;98599.78;4996595;28;966;-76
2022/11/28 06:25:14;;;;;;;;;;;;;;;20.74;26.33;98598.38;4996959;28;929;-76
2022/11/28 06:27:39;;;;;;;;;;;;;;;20.70;26.29;98597.63;4996675;28;1060;-76
2022/11/28 06:30:05;;;;;;;;;;;;;;;21.02;26.06;98597.16;4980300;28;952;-76
2022/11/28 06:32:31;;;;;;;;;;;;;;;20.90;26.18;98594.13;4980257;28;1022;-77
2022/11/28 06:34:56;;;;;;;;;;;;;;;20.91;26.04;98595.72;4980171;28;2005;-77
2022/11/28 06:37:22;;;;;;;;;;;;;;;20.53;26.53;98588.16;4980193;28;1056;-76
2022/11/28 06:39:50;;;;;;;;;;;;;;;20.55;26.77;98591.34;4996345;28;955;-77
2022/11/28 06:42:15;;;;;;;;;;;;;;;20.77;26.17;98586.19;4979902;28;952;-76
2022/11/28 06:44:41;;;;;;;;;;;;;;;21.32;25.58;98587.84;4979712;28;976;-76
2022/11/28 06:47:06;;;;;;;;;;;;;;;21.36;25.71;98589.81;4996313;28;1041;-76
2022/11/28 06:49:32;;;;;;;;;;;;;;;21.38;25.28;98590.97;5022964;28;933;-76
2022/11/28 06:51:57;;;;;;;;;;;;;;;20.92;25.87;98586.81;5058094;28;1009;-77
2022/11/28 06:54:22;;;;;;;;;;;;;;;20.65;26.50;98583.97;5040430;28;1984;-76
2022/11/28 06:56:48;;;;;;;;;;;;;;;20.48;26.54;98577.31;5057565;28;1002;-77
2022/11/28 06:59:13;;;;;;;;;;;;;;;21.17;25.77;98577.94;5057948;28;918;-76
2022/11/28 07:01:39;;;;;;;;;;;;;;;20.98;25.90;98575.81;5005771;28;1322;-77
2022/11/28 07:04:04;;;;;;;;;;;;;;;20.89;26.19;98584.06;5057348;28;1042;-76
2022/11/28 07:06:30;;;;;;;;;;;;;;;21.02;26.11;98579.38;5057353;28;1082;-76
2022/11/28 07:08:56;;;;;;;;;;;;;;;20.97;25.75;98577.84;5057614;28;906;-76
2022/11/28 07:11:22;;;;;;;;;;;;;;;20.75;26.08;98566.03;5057434;28;936;-76
2022/11/28 07:13:48;;;;;;;;;;;;;;;20.65;26.29;98561.34;5030447;28;1914;-76
2022/11/28 07:16:17;;;;;;;;;;;;;;;21.07;26.11;98570.41;5045003;28;1200;-76
2022/11/28 07:18:43;;;;;;;;;;;;;;;21.14;25.50;98575.16;5030097;28;1825;-76
2022/11/28 07:21:08;;;;;;;;;;;;;;;21.02;25.90;98568.06;5046685;28;1246;-76
2022/11/28 07:23:34;;;;;;;;;;;;;;;21.14;25.73;98561.84;5045869;28;1318;-76
2022/11/28 07:26:00;;;;;;;;;;;;;;;20.73;26.32;98557.19;5047823;28;1309;-76
2022/11/28 07:28:26;;;;;;;;;;;;;;;20.48;26.35;98556.72;5046392;28;1249;-76
2022/11/28 07:30:58;;;;;;;;;;;;;;;21.04;26.04;98562.81;5046287;28;1248;-76
2022/11/28 07:33:23;;;;;;;;;;;;;;;20.80;25.91;98548.59;5047939;28;1210;-76
2022/11/28 07:35:49;;;;;;;;;;;;;;;20.81;26.08;98553.03;5046438;28;1910;-76
2022/11/28 07:38:14;;;;;;;;;;;;;;;20.72;25.93;98546.28;5045639;28;1217;-76
2022/11/28 07:40:39;;;;;;;;;;;;;;;20.54;26.54;98538.88;5029929;28;1301;-76
2022/11/28 07:43:05;;;;;;;;;;;;;;;20.55;26.30;98542.50;5046147;28;1270;-76
2022/11/28 07:45:30;;;;;;;;;;;;;;;21.28;25.50;98553.09;5046385;28;1304;-75
2022/11/28 07:47:56;;;;;;;;;;;;;;;21.12;25.57;98550.13;5045266;28;1360;-76
2022/11/28 07:50:21;;;;;;;;;;;;;;;21.01;25.74;98541.81;5056812;28;993;-77
2022/11/28 07:52:48;;;;;;;;;;;;;;;20.57;26.29;98542.84;5056543;28;962;-77
2022/11/28 07:55:14;;;;;;;;;;;;;;;20.64;26.03;98548.44;5056750;28;1910;-77
2022/11/28 07:57:39;;;;;;;;;;;;;;;20.79;26.19;98543.38;5056644;28;927;-77
2022/11/28 08:00:05;;;;;;;;;;;;;;;21.10;25.33;98552.59;5056392;28;900;-76
2022/11/28 08:02:38;;;;;;;;;;;;;;;20.95;25.82;98546.34;5056383;28;957;-76
2022/11/28 08:05:03;;;;;;;;;;;;;;;21.07;25.55;98542.91;5056588;28;949;-76
2022/11/28 08:07:29;;;;;;;;;;;;;;;21.10;25.47;98552.59;5056479;28;982;-76
2022/11/28 08:09:54;;;;;;;;;;;;;;;20.72;25.72;98549.13;5056791;28;895;-77
2022/11/28 08:12:19;;;;;;;;;;;;;;;20.51;26.24;98544.56;5056308;28;1048;-75
2022/11/28 08:14:45;;;;;;;;;;;;;;;20.61;26.05;98549.28;5056498;28;1977;-77
2022/11/28 08:17:10;;;;;;;;;;;;;;;20.84;25.81;98561.91;5056426;28;1089;-77
2022/11/28 08:19:36;;;;;;;;;;;;;;;20.93;25.94;98553.66;5056135;28;983;-76
2022/11/28 08:22:01;;;;;;;;;;;;;;;21.00;25.47;98547.91;5056157;28;977;-76
2022/11/28 08:24:27;;;;;;;;;;;;;;;20.61;25.93;98543.63;5056257;28;964;-77
2022/11/28 08:26:52;;;;;;;;;;;;;;;20.71;26.26;98537.00;5038312;28;929;-76
2022/11/28 08:29:18;;;;;;;;;;;;;;;20.80;25.80;98545.78;5056097;28;970;-76
2022/11/28 08:31:43;;;;;;;;;;;;;;;20.77;25.79;98529.63;5056287;28;914;-77
2022/11/28 08:34:09;;;;;;;;;;;;;;;20.71;25.96;98531.34;5055920;28;1902;-76
2022/11/28 08:36:35;;;;;;;;;;;;;;;21.08;25.67;98538.06;5055876;28;1353;-76
2022/11/28 08:39:01;;;;;;;;;;;;;;;20.69;25.80;98539.47;5055972;28;996;-76
2022/11/28 08:41:26;;;;;;;;;;;;;;;20.54;25.99;98527.56;5056236;28;956;-76
2022/11/28 08:43:51;;;;;;;;;;;;;;;20.39;26.45;98530.97;5055885;28;949;-77
2022/11/28 08:46:20;;;;;;;;;;;;;;;21.07;25.69;98536.47;5055807;28;1001;-76
2022/11/28 08:48:46;;;;;;;;;;;;;;;21.16;25.20;98533.91;5055656;28;987;-73
2022/11/28 08:51:15;;;;;;;;;;;;;;;21.00;25.58;98525.28;5055970;28;866;-73
2022/11/28 08:53:41;;;;;;;;;;;;;;;20.69;25.86;98519.69;5055705;28;1977;-74
2022/11/28 08:56:06;;;;;;;;;;;;;;;20.73;26.03;98517.59;5055635;28;990;-74
2022/11/28 08:58:32;;;;;;;;;;;;;;;20.88;25.81;98523.03;5055532;28;1143;-74
2022/11/28 09:00:57;;;;;;;;;;;;;;;21.16;25.42;98511.25;5055379;28;931;-74
2022/11/28 09:03:22;;;;;;;;;;;;;;;21.12;25.64;98504.84;5055886;28;972;-74
2022/11/28 09:05:48;;;;;;;;;;;;;;;21.02;25.58;98506.63;5055280;28;982;-74
2022/11/28 09:08:14;;;;;;;;;;;;;;;20.62;25.96;98499.97;5055648;28;1013;-74
2022/11/28 09:10:40;;;;;;;;;;;;;;;20.81;25.61;98496.47;5054675;28;989;-74
2022/11/28 09:13:05;;;;;;;;;;;;;;;20.88;26.00;98500.41;5053641;28;954;-74
2022/11/28 09:15:31;;;;;;;;;;;;;;;21.08;25.43;98504.09;5055863;28;1906;-73
2022/11/28 09:17:56;;;;;;;;;;;;;;;21.17;25.55;98495.88;5055653;28;972;-73
2022/11/28 09:20:22;;;;;;;;;;;;;;;20.79;25.96;98503.78;5055563;28;966;-74
2022/11/28 09:22:47;;;;;;;;;;;;;;;20.60;26.14;98493.97;5055740;28;926;-74
2022/11/28 09:25:13;;;;;;;;;;;;;;;20.35;26.43;98491.44;5055202;28;914;-74
2022/11/28 09:27:38;;;;;;;;;;;;;;;21.05;25.58;98488.00;5055347;28;927;-74
2022/11/28 09:30:04;;;;;;;;;;;;;;;21.02;25.55;98486.03;5036463;28;938;-74
2022/11/28 09:32:30;;;;;;;;;;;;;;;20.99;25.50;98486.91;5036698;28;1011;-73
2022/11/28 09:34:55;;;;;;;;;;;;;;;20.73;25.83;98469.53;5055264;28;1910;-74
2022/11/28 09:37:21;;;;;;;;;;;;;;;20.53;25.95;98429.06;5054976;28;1169;-74
2022/11/28 09:39:46;;;;;;;;;;;;;;;21.05;25.76;98466.16;5055282;28;951;-73
2022/11/28 09:42:11;;;;;;;;;;;;;;;21.13;25.64;98469.66;5054960;28;913;-74
2022/11/28 09:44:40;;;;;;;;;;;;;;;20.94;25.62;98464.75;5054151;28;995;-74
2022/11/28 09:47:08;;;;;;;;;;;;;;;21.20;25.28;98472.38;5055238;28;1023;-74
2022/11/28 09:49:35;;;;;;;;;;;;;;;20.61;26.18;98470.09;5054057;28;949;-74
2022/11/28 09:52:10;;;;;;;;;;;;;;;20.46;26.30;98457.38;5054229;28;903;-74
2022/11/28 09:54:43;;;;;;;;;;;;;;;20.69;26.32;98460.28;5054802;28;1978;-74
2022/11/28 09:57:17;;;;;;;;;;;;;;;20.85;25.92;98456.81;5037417;28;1131;-74
2022/11/28 09:59:43;;;;;;;;;;;;;;;21.09;25.68;98454.81;5053665;28;943;-73
2022/11/28 10:02:11;;;;;;;;;;;;;;;20.74;25.79;98451.31;5054918;28;868;-74
2022/11/28 10:04:41;;;;;;;;;;;;;;;20.60;26.44;98456.41;5054698;28;1166;-74
2022/11/28 10:07:44;;;;;;;;;;;;;;;20.59;26.16;98449.16;5053871;28;1034;-73
2022/11/28 10:10:16;;;;;;;;;;;;;;;21.22;25.64;98441.63;5032495;28;1095;-74
2022/11/28 10:12:50;;;;;;;;;;;;;;;20.91;25.80;98440.94;5032599;28;1042;-73
2022/11/28 10:15:15;;;;;;;;;;;;;;;21.41;25.46;98442.94;5032621;28;1914;-74
2022/11/28 10:17:47;;;;;;;;;;;;;;;20.57;26.42;98435.44;5031473;28;2079;-74
2022/11/28 10:20:15;;;;;;;;;;;;;;;20.38;26.84;98428.44;5016046;28;1139;-73
2022/11/28 10:22:43;;;;;;;;;;;;;;;20.63;26.58;98428.09;5032895;28;1762;-74
2022/11/28 10:25:14;;;;;;;;;;;;;;;20.95;25.82;98426.75;5035953;28;1152;-74
2022/11/28 10:27:40;;;;;;;;;;;;;;;21.05;25.92;98420.09;5036055;28;1030;-73
2022/11/28 10:30:16;;;;;;;;;;;;;;;21.00;25.98;98417.78;5019254;28;1007;-74
2022/11/28 10:32:43;;;;;;;;;;;;;;;20.65;26.46;98402.19;5036198;28;974;-74
2022/11/28 10:35:11;;;;;;;;;;;;;;;20.57;26.40;98407.16;5035553;28;1980;-73
2022/11/28 10:37:37;;;;;;;;;;;;;;;21.13;25.69;98413.06;5035684;28;1073;-74
2022/11/28 10:40:29;;;;;;;;;;;;;;;20.89;26.13;98408.69;5035804;28;982;-73
2022/11/28 10:42:55;;;;;;;;;;;;;;;21.04;25.97;98399.50;4976734;28;1465;-74
2022/11/28 10:45:39;;;;;;;;;;;;;;;20.84;26.22;98397.84;4976954;28;1007;-74
2022/11/28 10:48:08;;;;;;;;;;;;;;;20.56;26.70;98388.59;4976733;28;1432;-74
2022/11/28 10:50:36;;;;;;;;;;;;;;;20.64;26.38;98390.09;4976696;28;1069;-74
2022/11/28 10:53:04;;;;;;;;;;;;;;;21.16;25.58;98386.75;4976876;28;988;-74
2022/11/28 10:55:48;;;;;;;;;;;;;;;21.04;26.07;98390.22;4992985;28;1946;-74
2022/11/28 10:58:22;;;;;;;;;;;;;;;20.93;25.97;98389.59;4976629;28;1235;-74
2022/11/28 11:00:51;;;;;;;;;;;;;;;20.85;26.06;98385.31;4976840;28;1042;-74
2022/11/28 11:03:25;;;;;;;;;;;;;;;20.56;26.72;98371.63;4960759;28;979;-74
2022/11/28 11:05:50;;;;;;;;;;;;;;;20.48;26.81;98373.00;4976579;28;956;-74
2022/11/28 11:08:19;;;;;;;;;;;;;;;20.86;26.15;98379.22;4960679;28;974;-77
2022/11/28 11:10:57;;;;;;;;;;;;;;;20.94;25.99;98372.22;4960192;28;978;-77
2022/11/28 11:13:26;;;;;;;;;;;;;;;20.88;25.99;98364.63;4992525;28;1050;-76
2022/11/28 11:15:58;;;;;;;;;;;;;;;21.22;25.81;98364.41;4976580;28;1967;-77
2022/11/28 11:18:24;;;;;;;;;;;;;;;20.71;26.22;98370.16;4976253;28;1144;-76
2022/11/28 11:20:50;;;;;;;;;;;;;;;20.68;26.36;98368.22;5013524;28;1387;-76
2022/11/28 11:23:16;;;;;;;;;;;;;;;20.31;26.89;98360.69;5015362;28;1053;-76
2022/11/28 11:25:46;;;;;;;;;;;;;;;20.79;26.44;98366.00;5015331;28;1037;-76
2022/11/28 11:28:24;;;;;;;;;;;;;;;20.98;26.05;98369.28;5015267;28;960;-77
2022/11/28 11:30:49;;;;;;;;;;;;;;;21.00;26.08;98375.34;5015012;28;971;-76
2022/11/28 11:33:15;;;;;;;;;;;;;;;20.70;26.12;98370.59;4998457;28;1001;-76
2022/11/28 11:35:44;;;;;;;;;;;;;;;20.55;26.61;98370.03;4974785;28;1985;-76
2022/11/28 11:38:14;;;;;;;;;;;;;;;20.27;27.01;98372.06;4976102;28;998;-76
2022/11/28 11:40:40;;;;;;;;;;;;;;;20.90;26.14;98367.84;4959816;28;1237;-76
2022/11/28 11:43:06;;;;;;;;;;;;;;;21.17;25.93;98353.59;4975745;28;998;-77
2022/11/28 11:45:33;;;;;;;;;;;;;;;20.94;26.14;98355.22;4975388;28;1463;-77
2022/11/28 11:47:58;;;;;;;;;;;;;;;20.94;26.26;98360.09;4975953;28;1019;-76
2022/11/28 11:50:24;;;;;;;;;;;;;;;20.50;26.74;98350.75;4959350;28;1603;-76
2022/11/28 11:53:02;;;;;;;;;;;;;;;20.28;27.11;98350.25;4959917;28;988;-76
2022/11/28 11:55:28;;;;;;;;;;;;;;;21.06;25.94;98334.00;4975627;28;1907;-76
2022/11/28 11:57:54;;;;;;;;;;;;;;;20.98;26.42;98335.34;4995064;28;953;-77
2022/11/28 12:00:19;;;;;;;;;;;;;;;20.93;26.26;98333.81;4978559;28;1037;-76
2022/11/28 12:02:55;;;;;;;;;;;;;;;21.06;25.88;98331.97;4994997;28;916;-76
2022/11/28 12:05:21;;;;;;;;;;;;;;;20.57;26.90;98339.31;4978464;28;1144;-76
2022/11/28 12:07:49;;;;;;;;;;;;;;;20.48;26.69;98342.69;5032120;28;917;-76
2022/11/28 12:10:15;;;;;;;;;;;;;;;20.57;26.72;98339.31;5034160;28;986;-76
2022/11/28 12:12:41;;;;;;;;;;;;;;;20.97;26.04;98340.22;5033927;28;1025;-76
2022/11/28 12:15:24;;;;;;;;;;;;;;;20.98;26.25;98335.34;5034260;28;1977;-77
2022/11/28 12:18:08;;;;;;;;;;;;;;;20.99;26.04;98336.97;5017428;28;964;-77
2022/11/28 12:20:49;;;;;;;;;;;;;;;20.98;26.08;98335.34;5034230;28;1059;-76
2022/11/28 12:23:20;;;;;;;;;;;;;;;20.48;27.00;98324.94;5033873;28;994;-77
2022/11/28 12:25:54;;;;;;;;;;;;;;;20.53;26.71;98327.28;5034052;28;965;-76
2022/11/28 12:28:20;;;;;;;;;;;;;;;20.86;26.51;98327.50;5017965;28;1553;-76
2022/11/28 12:31:04;;;;;;;;;;;;;;;21.12;25.97;98318.09;5036133;28;883;-77
2022/11/28 12:33:41;;;;;;;;;;;;;;;21.04;26.15;98316.66;5018989;28;969;-77
2022/11/28 12:36:13;;;;;;;;;;;;;;;20.94;26.25;98318.47;5018458;28;1989;-76
2022/11/28 12:38:47;;;;;;;;;;;;;;;20.58;26.94;98328.81;5036122;28;994;-76
2022/11/28 12:41:34;;;;;;;;;;;;;;;20.39;26.94;98324.66;5018149;28;1003;-76
2022/11/28 12:44:18;;;;;;;;;;;;;;;20.88;26.36;98325.03;5001640;28;938;-77
2022/11/28 12:47:02;;;;;;;;;;;;;;;20.92;26.47;98337.09;5035382;28;938;-76
2022/11/28 12:49:47;;;;;;;;;;;;;;;20.89;26.15;98321.78;5035644;28;1055;-76
2022/11/28 12:52:24;;;;;;;;;;;;;;;20.96;26.25;98321.66;5036259;28;1012;-77
2022/11/28 12:55:00;;;;;;;;;;;;;;;20.51;26.74;98312.75;5018123;28;1906;-76
2022/11/28 12:57:57;;;;;;;;;;;;;;;20.30;27.07;98323.16;5035630;28;968;-77
2022/11/28 13:00:24;;;;;;;;;;;;;;;20.71;26.80;98322.09;4974816;28;1480;-77
2022/11/28 13:02:52;;;;;;;;;;;;;;;20.95;26.37;98330.56;4974502;28;1022;-76
2022/11/28 13:05:44;;;;;;;;;;;;;;;20.96;26.10;98332.16;4974733;28;1035;-76
2022/11/28 13:08:15;;;;;;;;;;;;;;;21.20;25.86;98325.22;4898162;29;1107;-76